Time;durP1;ratioP1;P1;durP2;ratioP2;P2;SDS_P1;SDS_P2;PMS_P1;PMS_P2;Temp;Humidity;BMP_temperature;BMP_pressure;BME280_temperature;BME280_humidity;BME280_pressure;Samples;Min_cycle;Max_cycle;Signal;HPM_P1;HPM_P2
2022/03/05 00:00:08;;;;;;;29.30;18.43;;;7.60;1.00;;;;;;6068568;23;20168;-88
2022/03/05 00:02:34;;;;;;;33.43;18.43;;;7.50;1.00;;;;;;6114324;23;20191;-89
2022/03/05 00:05:00;;;;;;;26.63;19.37;;;7.30;1.00;;;;;;6084041;23;20152;-89
2022/03/05 00:07:30;;;;;;;30.70;19.03;;;7.20;25.80;;;;;;6082355;23;20152;-90
2022/03/05 00:10:10;;;;;;;31.00;20.10;;;7.00;99.90;;;;;;6085196;23;20176;-89
2022/03/05 00:12:39;;;;;;;28.83;18.60;;;6.70;99.90;;;;;;6088563;23;20152;-89
2022/03/05 00:15:16;;;;;;;30.03;19.67;;;6.60;99.90;;;;;;6082285;23;20470;-91
2022/03/05 00:17:43;;;;;;;29.53;19.73;;;6.80;99.90;;;;;;6085482;23;20214;-89
2022/03/05 00:20:11;;;;;;;26.83;19.97;;;6.80;99.90;;;;;;6092507;23;20263;-88
2022/03/05 00:22:39;;;;;;;31.70;20.70;;;6.50;99.90;;;;;;6111990;23;20578;-88
2022/03/05 00:25:06;;;;;;;31.80;20.87;;;6.50;99.90;;;;;;6088204;23;20151;-90
2022/03/05 00:27:32;;;;;;;32.40;20.70;;;6.70;99.90;;;;;;6066998;23;20179;-88
2022/03/05 00:30:01;;;;;;;29.47;20.10;;;6.80;99.90;;;;;;6067431;23;20178;-89
2022/03/05 00:32:29;;;;;;;29.53;20.23;;;6.90;99.90;;;;;;6088548;23;20155;-88
2022/03/05 00:34:55;;;;;;;28.20;19.20;;;7.00;99.90;;;;;;6084564;23;20156;-89
2022/03/05 00:37:24;;;;;;;27.63;19.33;;;6.70;99.90;;;;;;6088630;23;20223;-88
2022/03/05 00:39:52;;;;;;;29.37;19.40;;;6.50;99.90;;;;;;6088039;23;20186;-90
2022/03/05 00:42:43;;;;;;;30.73;19.73;;;6.60;99.90;;;;;;6088580;23;20155;-89
2022/03/05 00:45:12;;;;;;;29.87;19.33;;;6.60;99.90;;;;;;6086187;23;20171;-92
2022/03/05 00:47:38;;;;;;;28.93;19.27;;;6.40;99.90;;;;;;6080669;23;20152;-92
2022/03/05 00:50:42;;;;;;;25.93;19.03;;;6.40;1.00;;;;;;6054930;23;20255;-91
2022/03/05 00:53:11;;;;;;;24.33;18.53;;;6.40;1.00;;;;;;6078460;23;20151;-89
2022/03/05 00:55:38;;;;;;;28.10;19.73;;;6.30;1.00;;;;;;6056771;23;20493;-89
2022/03/05 00:58:03;;;;;;;27.77;19.43;;;6.20;1.00;;;;;;6091504;23;20171;-91
2022/03/05 01:00:29;;;;;;;30.40;19.57;;;6.20;1.00;;;;;;6059266;23;20167;-90
2022/03/05 01:02:58;;;;;;;28.83;18.87;;;6.00;1.00;;;;;;6098264;23;20203;-88
2022/03/05 01:05:42;;;;;;;27.97;18.27;;;5.80;1.00;;;;;;6081855;23;20152;-89
2022/03/05 01:08:12;;;;;;;31.33;19.40;;;5.70;1.00;;;;;;6103413;23;20144;-92
2022/03/05 01:10:38;;;;;;;28.80;20.03;;;5.70;7.50;;;;;;6081172;23;20148;-90
2022/03/05 01:13:03;;;;;;;28.00;19.17;;;5.80;1.00;;;;;;6080266;23;20501;-90
2022/03/05 01:15:29;;;;;;;27.90;18.40;;;5.80;1.00;;;;;;6079321;23;20152;-90
2022/03/05 01:17:56;;;;;;;28.33;19.50;;;5.80;1.00;;;;;;6104251;23;20484;-91
2022/03/05 01:20:21;;;;;;;31.17;19.43;;;5.60;99.90;;;;;;6078652;23;20147;-90
2022/03/05 01:22:47;;;;;;;29.37;20.60;;;5.50;99.90;;;;;;6079016;23;20171;-88
2022/03/05 01:25:16;;;;;;;29.03;19.23;;;5.70;99.90;;;;;;6077788;23;20144;-88
2022/03/05 01:27:43;;;;;;;28.27;18.97;;;5.80;99.90;;;;;;6077018;23;20162;-90
2022/03/05 01:30:09;;;;;;;27.10;20.17;;;5.70;99.90;;;;;;6080646;23;20227;-90
2022/03/05 01:32:35;;;;;;;30.73;19.87;;;5.50;99.90;;;;;;6106572;23;20164;-89
2022/03/05 01:35:02;;;;;;;28.37;19.67;;;5.50;99.90;;;;;;6085866;23;20148;-87
2022/03/05 01:37:28;;;;;;;29.13;19.80;;;5.60;99.90;;;;;;6085279;23;20199;-88
2022/03/05 01:39:54;;;;;;;32.07;19.73;;;5.70;99.90;;;;;;6078892;23;20238;-89
2022/03/05 01:42:20;;;;;;;29.40;18.50;;;5.60;99.90;;;;;;6077012;23;20573;-89
2022/03/05 01:44:46;;;;;;;34.13;21.43;;;5.40;1.00;;;;;;6077270;23;20171;-88
2022/03/05 01:47:13;;;;;;;29.43;20.00;;;5.30;1.00;;;;;;6108025;23;20139;-87
2022/03/05 01:49:39;;;;;;;29.77;19.47;;;5.30;99.90;;;;;;6099097;23;20156;-90
2022/03/05 01:52:08;;;;;;;29.63;19.00;;;5.40;3.90;;;;;;6090718;23;20159;-89
2022/03/05 01:54:36;;;;;;;27.83;19.40;;;5.30;99.90;;;;;;6080215;23;20160;-91
2022/03/05 01:57:03;;;;;;;31.10;21.10;;;5.20;99.90;;;;;;6078950;23;20187;-89
2022/03/05 01:59:29;;;;;;;27.23;20.53;;;5.20;1.00;;;;;;6101959;23;20147;-90
2022/03/05 02:01:58;;;;;;;29.90;20.30;;;5.30;1.00;;;;;;6077038;23;20152;-90
2022/03/05 02:04:28;;;;;;;32.27;20.77;;;5.30;1.00;;;;;;6076166;23;20151;-89
2022/03/05 02:06:53;;;;;;;31.30;19.83;;;5.30;1.00;;;;;;6076032;23;20152;-89
2022/03/05 02:09:20;;;;;;;31.17;21.33;;;5.20;1.00;;;;;;6075226;23;20604;-89
2022/03/05 02:11:47;;;;;;;33.53;22.20;;;5.10;1.00;;;;;;6076230;23;20155;-89
2022/03/05 02:14:17;;;;;;;31.83;20.90;;;5.00;99.90;;;;;;6079029;23;20209;-88
2022/03/05 02:16:44;;;;;;;30.53;20.70;;;5.10;99.90;;;;;;6099048;23;20176;-88
2022/03/05 02:19:09;;;;;;;31.97;21.57;;;5.00;99.90;;;;;;6099842;23;20136;-89
2022/03/05 02:21:36;;;;;;;32.93;20.50;;;5.00;1.00;;;;;;6100143;23;20171;-90
2022/03/05 02:24:05;;;;;;;29.73;20.57;;;5.10;1.00;;;;;;6088883;23;20242;-89
2022/03/05 02:26:59;;;;;;;31.83;21.23;;;4.90;99.90;;;;;;6076785;23;20155;-89
2022/03/05 02:29:36;;;;;;;31.30;21.00;;;4.80;1.00;;;;;;6081283;23;20148;-88
2022/03/05 02:32:03;;;;;;;32.90;21.07;;;4.70;99.90;;;;;;6099059;23;20192;-87
2022/03/05 02:34:29;;;;;;;33.23;21.67;;;4.60;1.00;;;;;;6098270;23;20167;-88
2022/03/05 02:36:55;;;;;;;29.80;20.67;;;4.60;1.00;;;;;;6082263;23;20655;-90
2022/03/05 02:39:24;;;;;;;34.73;19.60;;;4.50;99.90;;;;;;6076670;23;20179;-89
2022/03/05 02:45:21;;;;;;;32.13;20.63;;;4.30;12.90;;;;;;6115530;23;20179;-90
2022/03/05 02:47:54;;;;;;;32.73;20.10;;;4.40;1.00;;;;;;6081372;23;20154;-90
2022/03/05 02:50:20;;;;;;;30.20;19.93;;;4.30;1.00;;;;;;6080538;23;20242;-91
2022/03/05 02:52:46;;;;;;;30.67;21.37;;;4.20;99.90;;;;;;6081901;23;20207;-90
2022/03/05 02:55:13;;;;;;;30.20;21.10;;;4.20;99.90;;;;;;6082062;23;20167;-90
2022/03/05 02:57:39;;;;;;;31.30;21.03;;;4.20;99.90;;;;;;6084185;23;20236;-90
2022/03/05 03:00:09;;;;;;;28.90;19.90;;;4.20;99.90;;;;;;6087872;23;20148;-88
2022/03/05 03:02:38;;;;;;;31.43;20.60;;;4.20;8.50;;;;;;6121744;23;20159;-88
2022/03/05 03:05:06;;;;;;;29.53;21.50;;;4.20;1.00;;;;;;6098502;23;20163;-87
2022/03/05 03:07:35;;;;;;;29.83;20.77;;;4.20;1.00;;;;;;6091178;23;20175;-88
2022/03/05 03:10:05;;;;;;;31.93;22.23;;;4.10;99.90;;;;;;6086396;23;20156;-90
2022/03/05 03:12:34;;;;;;;32.63;21.10;;;4.20;99.90;;;;;;6086552;23;20160;-91
2022/03/05 03:18:32;;;;;;;31.40;21.67;;;4.30;1.00;;;;;;6107967;23;20186;-88
2022/03/05 03:20:58;;;;;;;32.30;22.17;;;4.20;1.00;;;;;;6088892;23;20581;-90
2022/03/05 03:24:17;;;;;;;28.87;21.40;;;4.20;99.90;;;;;;6052999;23;20174;-91
2022/03/05 03:26:50;;;;;;;29.37;21.20;;;4.10;99.90;;;;;;6102635;23;20147;-89
2022/03/05 03:29:16;;;;;;;30.43;21.13;;;4.00;1.00;;;;;;6095109;23;20144;-93
2022/03/05 03:31:43;;;;;;;34.30;23.67;;;4.00;1.00;;;;;;6100302;23;20171;-90
2022/03/05 03:34:12;;;;;;;33.73;21.77;;;4.00;1.00;;;;;;6092873;23;20175;-89
2022/03/05 03:36:40;;;;;;;31.10;20.60;;;3.90;99.90;;;;;;6088842;23;20270;-89
2022/03/05 03:39:07;;;;;;;35.90;23.50;;;3.90;99.90;;;;;;6118647;23;20151;-89
2022/03/05 03:41:33;;;;;;;29.90;21.23;;;3.90;1.00;;;;;;6086554;23;20163;-90
2022/03/05 03:43:58;;;;;;;33.70;22.97;;;4.20;1.00;;;;;;6076786;23;20672;-89
2022/03/05 03:46:32;;;;;;;31.80;21.60;;;3.90;1.00;;;;;;6077678;23;20155;-88
2022/03/05 03:48:58;;;;;;;31.47;21.03;;;3.80;1.00;;;;;;6078755;23;20152;-90
2022/03/05 03:51:24;;;;;;;30.30;21.23;;;3.90;1.00;;;;;;6106486;23;20223;-90
2022/03/05 03:53:50;;;;;;;32.57;21.40;;;3.90;1.00;;;;;;6083556;23;20156;-89
2022/03/05 03:56:16;;;;;;;36.47;23.30;;;3.80;1.00;;;;;;6096320;23;20193;-91
2022/03/05 03:58:41;;;;;;;33.27;21.63;;;4.00;40.50;;;;;;6087385;23;20144;-88
2022/03/05 04:01:25;;;;;;;30.73;22.00;;;3.80;58.80;;;;;;6084742;23;20190;-90
2022/03/05 04:03:54;;;;;;;33.87;21.40;;;3.70;99.90;;;;;;6083534;23;20608;-89
2022/03/05 04:06:23;;;;;;;31.57;21.33;;;3.70;99.90;;;;;;6055964;23;20159;-92
2022/03/05 04:08:50;;;;;;;30.27;21.90;;;3.80;99.90;;;;;;6081097;23;20148;-90
2022/03/05 04:11:19;;;;;;;32.60;22.17;;;3.90;53.20;;;;;;6081867;23;20237;-90
2022/03/05 04:13:47;;;;;;;34.50;22.20;;;4.10;1.00;;;;;;6109434;23;20175;-88
2022/03/05 04:16:14;;;;;;;28.70;20.90;;;4.10;1.00;;;;;;6068347;23;20227;-88
2022/03/05 04:18:40;;;;;;;32.10;20.40;;;4.00;1.00;;;;;;6085415;23;20211;-91
2022/03/05 04:21:11;;;;;;;29.10;20.73;;;4.10;1.00;;;;;;6085798;23;20147;-89
2022/03/05 04:23:36;;;;;;;34.60;21.87;;;4.30;99.90;;;;;;6080996;23;20168;-89
2022/03/05 04:26:02;;;;;;;28.83;20.97;;;4.40;16.60;;;;;;6085757;23;20608;-89
2022/03/05 04:28:28;;;;;;;29.33;20.83;;;4.30;1.00;;;;;;6093269;23;20570;-91
2022/03/05 04:30:59;;;;;;;33.07;21.07;;;4.20;99.90;;;;;;6082206;23;20155;-90
2022/03/05 04:33:28;;;;;;;32.57;21.53;;;4.00;99.90;;;;;;6081323;23;20589;-90
2022/03/05 04:35:56;;;;;;;29.07;19.73;;;3.80;1.00;;;;;;6081032;23;20184;-91
2022/03/05 04:38:23;;;;;;;32.10;21.33;;;3.90;1.00;;;;;;6083671;23;20190;-91
2022/03/05 04:40:50;;;;;;;33.73;20.63;;;3.80;10.00;;;;;;6117830;23;20136;-89
2022/03/05 04:43:57;;;;;;;29.57;20.27;;;3.80;9.80;;;;;;6081004;23;20156;-91
2022/03/05 04:46:26;;;;;;;33.30;20.97;;;3.80;43.10;;;;;;6080378;23;20175;-90
2022/03/05 04:48:54;;;;;;;30.90;20.37;;;3.60;99.90;;;;;;6083142;23;20162;-90
2022/03/05 04:51:23;;;;;;;30.07;21.30;;;3.50;99.90;;;;;;6090044;23;20148;-90
2022/03/05 04:53:51;;;;;;;39.10;24.63;;;3.50;99.90;;;;;;6083582;23;20160;-91
2022/03/05 04:56:19;;;;;;;33.13;22.17;;;3.50;99.90;;;;;;6096381;23;20191;-90
2022/03/05 04:59:08;;;;;;;31.13;20.83;;;3.50;99.90;;;;;;6091959;23;20204;-90
2022/03/05 05:01:34;;;;;;;32.83;20.83;;;3.10;99.90;;;;;;6084348;23;20203;-91
2022/03/05 05:04:04;;;;;;;33.37;20.53;;;3.30;99.90;;;;;;6083875;23;20188;-93
2022/03/05 05:06:30;;;;;;;37.10;22.80;;;3.30;99.90;;;;;;6082821;23;20147;-90
2022/03/05 05:08:56;;;;;;;29.73;22.47;;;3.40;99.90;;;;;;6080989;23;20172;-91
2022/03/05 05:11:23;;;;;;;30.67;21.27;;;3.30;99.90;;;;;;6108180;23;20170;-90
2022/03/05 05:13:49;;;;;;;32.90;22.57;;;3.40;99.90;;;;;;6108827;23;20136;-90
2022/03/05 05:16:14;;;;;;;36.43;21.27;;;3.40;99.90;;;;;;6081908;23;20243;-90
2022/03/05 05:19:24;;;;;;;33.27;22.37;;;3.40;99.90;;;;;;6055539;23;20478;-90
2022/03/05 05:21:31;;;;;;;35.73;22.50;;;3.30;99.90;;;;;;6105051;23;20148;-90
2022/03/05 05:24:09;;;;;;;29.60;20.63;;;3.20;1.00;;;;;;6079288;23;20260;-90
2022/03/05 05:26:35;;;;;;;32.03;21.97;;;3.20;1.00;;;;;;6084326;23;20155;-91
2022/03/05 05:29:04;;;;;;;31.10;20.57;;;3.20;1.00;;;;;;6083322;23;20154;-91
2022/03/05 05:31:30;;;;;;;34.33;22.47;;;3.20;1.00;;;;;;6087858;23;20163;-89
2022/03/05 05:34:00;;;;;;;42.37;32.07;;;3.20;1.00;;;;;;6098709;23;20159;-91
2022/03/05 05:36:26;;;;;;;33.07;23.17;;;3.30;1.00;;;;;;6076733;23;20215;-87
2022/03/05 05:38:53;;;;;;;30.90;21.70;;;3.30;1.00;;;;;;6089695;23;20197;-91
2022/03/05 05:41:22;;;;;;;32.90;21.87;;;3.10;1.00;;;;;;6089856;23;20179;-89
2022/03/05 05:44:40;;;;;;;35.37;22.97;;;3.00;1.00;;;;;;6083750;23;20155;-91
2022/03/05 05:47:36;;;;;;;30.70;19.87;;;3.00;1.00;;;;;;6079776;23;20169;-90
2022/03/05 05:50:04;;;;;;;34.73;21.67;;;2.90;1.00;;;;;;6052884;23;20156;-89
2022/03/05 05:52:32;;;;;;;33.07;22.33;;;2.90;1.00;;;;;;6055664;23;20465;-93
2022/03/05 05:54:58;;;;;;;35.13;22.63;;;2.90;1.00;;;;;;6057807;23;20219;-91
2022/03/05 05:57:24;;;;;;;31.87;22.67;;;3.10;1.00;;;;;;6058139;23;20177;-91
2022/03/05 05:59:51;;;;;;;33.40;23.07;;;3.30;1.00;;;;;;6071371;23;20209;-90
2022/03/05 06:02:29;;;;;;;32.90;22.53;;;3.40;1.00;;;;;;6071414;23;20216;-90
2022/03/05 06:04:55;;;;;;;34.53;22.13;;;3.60;1.00;;;;;;6052252;23;20160;-90
2022/03/05 06:07:23;;;;;;;33.67;24.03;;;3.80;99.90;;;;;;6053235;23;20148;-92
2022/03/05 06:09:52;;;;;;;33.90;22.60;;;4.10;99.90;;;;;;6059176;23;20212;-89
2022/03/05 06:12:19;;;;;;;32.53;22.30;;;3.90;99.90;;;;;;6064347;23;20160;-88
2022/03/05 06:14:57;;;;;;;31.77;22.40;;;3.90;99.90;;;;;;6091894;23;20145;-90
2022/03/05 06:17:33;;;;;;;30.63;22.80;;;4.00;99.90;;;;;;6075960;23;20228;-92
2022/03/05 06:20:02;;;;;;;31.37;22.67;;;4.20;99.90;;;;;;6054687;23;20168;-92
2022/03/05 06:22:29;;;;;;;29.77;21.77;;;4.20;99.90;;;;;;6057295;23;20176;-92
2022/03/05 06:25:17;;;;;;;29.50;21.03;;;4.10;99.90;;;;;;6051367;23;20183;-90
2022/03/05 06:27:44;;;;;;;30.67;21.40;;;4.10;99.90;;;;;;6056811;23;20161;-90
2022/03/05 06:30:32;;;;;;;32.53;22.37;;;4.20;99.90;;;;;;6051446;23;20163;-91
2022/03/05 06:33:01;;;;;;;35.07;23.73;;;4.00;99.90;;;;;;6047933;23;20165;-91
2022/03/05 06:35:26;;;;;;;33.10;22.13;;;4.20;99.90;;;;;;6048836;23;20149;-91
2022/03/05 06:37:57;;;;;;;35.83;22.57;;;4.20;99.90;;;;;;6060234;23;20251;-90
2022/03/05 06:40:24;;;;;;;30.80;22.00;;;4.30;99.90;;;;;;6066121;23;20166;-92
2022/03/05 06:42:49;;;;;;;34.00;23.67;;;4.40;99.90;;;;;;6068781;23;20192;-92
2022/03/05 06:45:15;;;;;;;32.83;22.43;;;4.50;21.00;;;;;;6067410;23;20192;-91
2022/03/05 06:47:41;;;;;;;32.73;22.73;;;4.50;1.00;;;;;;6086002;23;20155;-91
2022/03/05 06:50:09;;;;;;;31.57;22.10;;;4.70;1.00;;;;;;6062868;23;20588;-92
2022/03/05 06:53:24;;;;;;;38.67;24.70;;;4.50;22.80;;;;;;6082714;23;20160;-92
2022/03/05 06:55:54;;;;;;;32.43;21.90;;;4.50;35.20;;;;;;6088883;23;20577;-91
2022/03/05 06:58:23;;;;;;;31.20;21.30;;;4.30;99.90;;;;;;6088281;23;20159;-91
2022/03/05 07:00:59;;;;;;;33.37;23.13;;;4.20;99.90;;;;;;6113691;23;20148;-92
2022/03/05 07:03:26;;;;;;;35.93;23.50;;;4.10;99.90;;;;;;6082109;23;20198;-90
2022/03/05 07:09:08;;;;;;;31.47;22.10;;;4.30;1.00;;;;;;6119210;23;20203;-90
2022/03/05 07:11:37;;;;;;;38.13;23.80;;;4.20;1.00;;;;;;6086117;23;20159;-88
2022/03/05 07:14:04;;;;;;;33.53;23.67;;;4.20;1.00;;;;;;6085806;23;20151;-91
2022/03/05 07:16:30;;;;;;;36.07;23.63;;;4.30;1.00;;;;;;6059680;23;20191;-90
2022/03/05 07:18:56;;;;;;;39.37;24.50;;;4.30;1.00;;;;;;6076430;23;20227;-83
2022/03/05 07:21:24;;;;;;;34.03;23.00;;;4.30;1.00;;;;;;6081118;23;20135;-89
2022/03/05 07:23:52;;;;;;;37.33;23.60;;;4.40;1.00;;;;;;6074872;23;20155;-91
2022/03/05 07:26:18;;;;;;;32.33;21.33;;;4.50;99.90;;;;;;6075855;23;20180;-89
2022/03/05 07:28:50;;;;;;;34.40;22.67;;;4.60;99.90;;;;;;6086368;23;20147;-92
2022/03/05 07:31:37;;;;;;;29.73;22.10;;;4.50;99.90;;;;;;6082755;23;20230;-91
2022/03/05 07:34:04;;;;;;;30.73;22.13;;;4.50;99.90;;;;;;6078042;23;20148;-91
2022/03/05 07:36:30;;;;;;;29.67;20.43;;;4.60;99.90;;;;;;6078813;23;20194;-88
2022/03/05 07:38:56;;;;;;;34.60;20.30;;;4.50;1.00;;;;;;6079627;23;20183;-89
2022/03/05 07:41:22;;;;;;;29.87;20.17;;;4.60;99.90;;;;;;6083791;23;20656;-88
2022/03/05 07:43:47;;;;;;;31.50;19.87;;;4.40;99.90;;;;;;6079535;23;20155;-89
2022/03/05 07:46:13;;;;;;;30.10;19.87;;;4.40;99.90;;;;;;6077542;23;20172;-88
2022/03/05 07:48:39;;;;;;;29.40;20.50;;;4.60;99.90;;;;;;6080902;23;20156;-91
2022/03/05 07:51:05;;;;;;;28.37;19.33;;;4.50;1.00;;;;;;6080614;23;20155;-89
2022/03/05 07:53:34;;;;;;;33.23;20.93;;;4.60;99.90;;;;;;6060672;23;20151;-87
2022/03/05 07:56:00;;;;;;;32.77;21.70;;;4.50;99.90;;;;;;6080253;23;20191;-88
2022/03/05 07:58:28;;;;;;;29.77;20.17;;;4.70;99.90;;;;;;6077162;23;20155;-89
2022/03/05 08:00:58;;;;;;;31.93;21.50;;;4.90;1.00;;;;;;6077898;23;20159;-90
2022/03/05 08:03:27;;;;;;;34.37;21.17;;;4.90;1.00;;;;;;6081137;23;20164;-89
2022/03/05 08:05:53;;;;;;;30.33;21.43;;;4.90;71.60;;;;;;6082077;23;20160;-88
2022/03/05 08:08:19;;;;;;;33.17;21.27;;;5.00;1.00;;;;;;6080074;23;20151;-88
2022/03/05 08:10:45;;;;;;;31.30;20.93;;;5.10;1.00;;;;;;6079049;23;20188;-89
2022/03/05 08:13:12;;;;;;;35.07;22.33;;;5.20;1.00;;;;;;6054980;23;20160;-90
2022/03/05 08:15:38;;;;;;;28.03;20.90;;;5.30;1.00;;;;;;6078574;23;20156;-88
2022/03/05 08:18:27;;;;;;;32.87;21.67;;;5.30;99.90;;;;;;6100596;23;20275;-91
2022/03/05 08:20:53;;;;;;;34.53;20.13;;;5.50;99.90;;;;;;6078374;23;20589;-90
2022/03/05 08:23:21;;;;;;;30.33;20.73;;;5.60;1.00;;;;;;6077053;23;20155;-92
2022/03/05 08:25:47;;;;;;;26.90;19.13;;;5.80;99.90;;;;;;6077158;23;20167;-90
2022/03/05 08:28:45;;;;;;;;;;;;;;;;;;;;;
2022/03/05 08:31:16;;;;;;;29.33;20.77;;;6.00;99.90;;;;;;6099016;23;20235;-90
2022/03/05 08:33:42;;;;;;;38.10;21.17;;;6.20;56.90;;;;;;6078285;23;20175;-91
2022/03/05 08:36:12;;;;;;;32.30;20.63;;;6.30;1.00;;;;;;6078060;23;20216;-90
2022/03/05 08:38:39;;;;;;;31.37;22.00;;;6.30;1.00;;;;;;6078289;23;20179;-90
2022/03/05 08:41:05;;;;;;;31.20;21.47;;;6.50;1.00;;;;;;6078110;23;20152;-89
2022/03/05 08:43:31;;;;;;;30.83;20.40;;;6.50;99.90;;;;;;6054514;23;20243;-92
2022/03/05 08:46:01;;;;;;;31.80;21.70;;;6.40;1.00;;;;;;6077365;23;20198;-91
2022/03/05 08:48:28;;;;;;;30.40;21.43;;;6.40;1.00;;;;;;6077335;23;20163;-90
2022/03/05 08:50:53;;;;;;;28.93;21.13;;;6.50;99.90;;;;;;6080661;23;20152;-89
2022/03/05 08:53:22;;;;;;;31.27;20.77;;;6.70;99.90;;;;;;6086638;23;20155;-88
2022/03/05 08:55:48;;;;;;;30.63;21.53;;;6.70;99.90;;;;;;6117879;23;20211;-92
2022/03/05 08:58:14;;;;;;;32.40;21.57;;;6.90;1.00;;;;;;6080139;23;20156;-90
2022/03/05 09:00:40;;;;;;;32.53;21.87;;;7.20;1.00;;;;;;6080287;23;20151;-89
2022/03/05 09:03:12;;;;;;;35.10;22.30;;;7.30;1.00;;;;;;6103807;23;20158;-90
2022/03/05 09:05:38;;;;;;;31.60;21.43;;;7.50;99.90;;;;;;6086362;23;20155;-88
2022/03/05 09:08:04;;;;;;;32.03;19.87;;;7.70;99.90;;;;;;6094610;23;20152;-89
2022/03/05 09:10:38;;;;;;;31.40;21.40;;;7.70;99.90;;;;;;6116949;23;20588;-89
2022/03/05 09:13:04;;;;;;;29.53;21.20;;;7.80;99.90;;;;;;6088537;23;20158;-90
2022/03/05 09:15:31;;;;;;;34.07;22.70;;;8.00;99.90;;;;;;6099087;23;20171;-91
2022/03/05 09:17:57;;;;;;;29.33;21.60;;;8.00;99.90;;;;;;6098731;23;20203;-93
2022/03/05 09:20:32;;;;;;;29.60;22.37;;;8.10;99.90;;;;;;6098816;23;20143;-92
2022/03/05 09:22:58;;;;;;;32.93;21.77;;;8.50;87.40;;;;;;6118530;23;20140;-94
2022/03/05 09:25:24;;;;;;;28.43;19.93;;;8.30;54.50;;;;;;6092409;23;20546;-93
2022/03/05 09:27:52;;;;;;;29.70;20.73;;;8.50;14.20;;;;;;6088076;23;20160;-94
2022/03/05 09:30:19;;;;;;;35.10;20.97;;;8.30;18.00;;;;;;6088848;23;20243;-91
2022/03/05 09:32:48;;;;;;;30.67;21.43;;;8.00;36.00;;;;;;6087448;23;20159;-92
2022/03/05 09:35:15;;;;;;;31.10;22.03;;;7.80;99.90;;;;;;6094376;23;20167;-92
2022/03/05 09:37:44;;;;;;;32.07;21.07;;;7.70;99.90;;;;;;6095083;23;20262;-92
2022/03/05 09:40:11;;;;;;;28.60;20.93;;;7.90;99.90;;;;;;6091758;23;20184;-92
2022/03/05 09:42:43;;;;;;;32.13;21.40;;;8.10;99.90;;;;;;6080864;23;20175;-90
2022/03/05 09:45:10;;;;;;;34.13;22.17;;;8.30;99.90;;;;;;6078894;23;20479;-94
2022/03/05 09:47:38;;;;;;;35.03;22.47;;;8.30;99.90;;;;;;6038442;23;20156;-91
2022/03/05 09:50:07;;;;;;;31.63;22.30;;;8.70;99.90;;;;;;6082062;23;20148;-90
2022/03/05 09:52:34;;;;;;;32.30;21.73;;;8.60;98.10;;;;;;6050487;23;20152;-91
2022/03/05 09:55:09;;;;;;;29.20;20.60;;;8.80;77.20;;;;;;6078401;23;20171;-90
2022/03/05 09:57:37;;;;;;;29.20;20.90;;;9.00;1.00;;;;;;6052222;23;20259;-89
2022/03/05 10:00:06;;;;;;;30.10;22.40;;;9.30;1.00;;;;;;6074562;23;20536;-89
2022/03/05 10:02:32;;;;;;;28.23;22.70;;;9.50;1.00;;;;;;6077101;23;20539;-90
2022/03/05 10:05:18;;;;;;;28.90;21.93;;;9.60;1.00;;;;;;6082854;23;20180;-89
2022/03/05 10:07:59;;;;;;;30.03;23.13;;;9.60;1.00;;;;;;6060023;23;20155;-88
2022/03/05 10:10:25;;;;;;;33.07;23.83;;;9.80;1.00;;;;;;6083239;23;20167;-87
2022/03/05 10:12:50;;;;;;;32.87;23.13;;;9.80;1.00;;;;;;6072259;23;20240;-89
2022/03/05 10:15:23;;;;;;;30.87;21.70;;;9.90;1.00;;;;;;6074435;23;20144;-87
2022/03/05 10:17:59;;;;;;;30.23;22.10;;;9.90;1.00;;;;;;6079555;23;20176;-88
2022/03/05 10:20:31;;;;;;;28.10;21.90;;;9.80;1.00;;;;;;6084653;23;20164;-87
2022/03/05 10:23:09;;;;;;;32.87;22.53;;;10.00;1.00;;;;;;6072317;23;20519;-88
2022/03/05 10:25:37;;;;;;;31.63;23.00;;;9.90;1.00;;;;;;6048477;23;20175;-88
2022/03/05 10:28:13;;;;;;;30.03;23.53;;;10.10;1.00;;;;;;6071720;23;20162;-90
2022/03/05 10:30:47;;;;;;;33.40;22.50;;;10.20;1.00;;;;;;6072864;23;20155;-91
2022/03/05 10:33:35;;;;;;;33.50;24.77;;;10.00;1.00;;;;;;6074708;23;20155;-88
2022/03/05 10:36:04;;;;;;;31.20;23.83;;;10.10;1.00;;;;;;6047123;23;20152;-91
2022/03/05 10:38:51;;;;;;;32.43;23.17;;;9.80;1.00;;;;;;6072683;23;20206;-88
2022/03/05 10:41:30;;;;;;;32.40;23.70;;;9.60;1.00;;;;;;6048765;23;20145;-89
2022/03/05 10:44:15;;;;;;;32.57;24.27;;;9.80;1.00;;;;;;6092502;23;20140;-90
2022/03/05 10:46:55;;;;;;;33.17;24.83;;;9.90;1.00;;;;;;6090222;23;20172;-89
2022/03/05 10:49:37;;;;;;;36.27;25.57;;;10.30;1.00;;;;;;6088892;23;20147;-93
2022/03/05 10:52:07;;;;;;;31.43;23.90;;;10.30;1.00;;;;;;6050831;23;20176;-91
2022/03/05 10:55:04;;;;;;;32.23;24.40;;;10.40;1.00;;;;;;6061768;23;20171;-91
2022/03/05 10:57:38;;;;;;;33.47;25.13;;;10.50;1.00;;;;;;6068182;23;20194;-90
2022/03/05 11:00:09;;;;;;;32.43;24.07;;;10.60;1.00;;;;;;6091531;23;20166;-86
2022/03/05 11:02:35;;;;;;;34.90;24.70;;;10.40;1.00;;;;;;6087417;23;20228;-92
2022/03/05 11:05:01;;;;;;;33.53;25.03;;;10.30;1.00;;;;;;6091339;23;20164;-91
2022/03/05 11:07:28;;;;;;;32.70;24.77;;;10.30;1.00;;;;;;6089647;23;20216;-93
2022/03/05 11:10:21;;;;;;;34.33;24.97;;;10.50;1.00;;;;;;6088237;23;20160;-92
2022/03/05 11:13:30;;;;;;;;;;;;;;;;;;;;;
2022/03/05 11:16:42;;;;;;;31.27;23.33;;;10.80;1.00;;;;;;6083332;23;20148;-93
2022/03/05 11:19:17;;;;;;;32.90;22.50;;;10.50;1.00;;;;;;6080638;23;20218;-92
2022/03/05 11:21:49;;;;;;;31.53;23.37;;;10.50;1.00;;;;;;6058301;23;20160;-90
2022/03/05 11:24:37;;;;;;;;;;;;;;;;;;;;;
2022/03/05 11:30:53;;;;;;;27.97;21.27;;;10.80;1.00;;;;;;6045793;23;20160;-92
2022/03/05 11:33:38;;;;;;;31.70;21.40;;;10.60;1.00;;;;;;6072735;23;20216;-92
2022/03/05 11:36:30;;;;;;;27.37;22.30;;;10.60;1.00;;;;;;6081304;23;20211;-91
2022/03/05 11:39:29;;;;;;;26.43;20.87;;;10.30;1.00;;;;;;6076791;23;20179;-94
2022/03/05 11:42:02;;;;;;;31.43;22.03;;;10.10;1.00;;;;;;6065616;23;20191;-93
2022/03/05 11:44:43;;;;;;;30.00;21.77;;;10.40;1.00;;;;;;6065508;23;20160;-92
2022/03/05 11:47:36;;;;;;;29.97;21.73;;;10.70;1.00;;;;;;6075489;23;20171;-94
2022/03/05 11:50:06;;;;;;;28.43;22.17;;;10.80;1.00;;;;;;6080637;23;20236;-93
2022/03/05 11:52:46;;;;;;;30.87;24.27;;;10.90;1.00;;;;;;6088537;23;20170;-94
2022/03/05 11:55:41;;;;;;;30.60;24.27;;;10.90;1.00;;;;;;6113273;23;20152;-93
2022/03/05 11:58:18;;;;;;;32.20;24.33;;;10.90;1.00;;;;;;6120073;23;20235;-94
2022/03/05 12:00:49;;;;;;;29.83;21.33;;;10.50;1.00;;;;;;6083305;23;20151;-92
2022/03/05 12:03:37;;;;;;;28.20;20.00;;;10.80;1.00;;;;;;6057996;23;20156;-92
2022/03/05 12:06:05;;;;;;;27.77;20.30;;;10.70;1.00;;;;;;6080001;23;20160;-93
2022/03/05 12:08:30;;;;;;;29.80;21.93;;;10.70;1.00;;;;;;6080669;23;20164;-92
2022/03/05 12:11:20;;;;;;;29.70;22.23;;;10.80;1.00;;;;;;6103457;23;20139;-91
2022/03/05 12:13:54;;;;;;;26.07;18.93;;;10.70;1.00;;;;;;6077939;23;20159;-88
2022/03/05 12:16:29;;;;;;;29.80;19.10;;;10.40;1.00;;;;;;6079936;23;20229;-91
2022/03/05 12:19:07;;;;;;;28.03;21.13;;;10.60;1.00;;;;;;6081124;23;20206;-88
2022/03/05 12:21:35;;;;;;;26.33;19.83;;;10.70;1.00;;;;;;6106655;23;20152;-88
2022/03/05 12:24:07;;;;;;;29.33;21.17;;;10.80;1.00;;;;;;6080057;23;20219;-91
2022/03/05 12:26:40;;;;;;;27.40;20.47;;;11.00;1.00;;;;;;6078579;23;20148;-87
2022/03/05 12:29:08;;;;;;;32.50;20.37;;;11.10;1.00;;;;;;6085021;23;20242;-91
2022/03/05 12:31:42;;;;;;;23.03;16.83;;;11.00;1.00;;;;;;6083266;23;20163;-90
2022/03/05 12:34:08;;;;;;;25.00;18.00;;;10.90;1.00;;;;;;6055698;23;20162;-89
2022/03/05 12:36:41;;;;;;;24.07;18.13;;;10.90;1.00;;;;;;6078166;23;20237;-89
2022/03/05 12:39:07;;;;;;;25.97;18.40;;;11.00;1.00;;;;;;6102726;23;20194;-90
2022/03/05 12:41:34;;;;;;;22.03;16.10;;;11.00;1.00;;;;;;6054457;23;20164;-91
2022/03/05 12:44:00;;;;;;;21.97;16.70;;;11.10;1.00;;;;;;6079399;23;20140;-90
2022/03/05 12:46:26;;;;;;;27.07;20.00;;;11.10;1.00;;;;;;6078648;23;20461;-90
2022/03/05 12:49:06;;;;;;;29.53;20.57;;;11.10;1.00;;;;;;6078502;23;20239;-89
2022/03/05 12:51:32;;;;;;;25.63;18.37;;;11.10;1.00;;;;;;6113964;23;20178;-88
2022/03/05 12:54:02;;;;;;;24.43;18.60;;;11.10;1.00;;;;;;6086929;23;20171;-88
2022/03/05 12:56:28;;;;;;;26.43;18.87;;;11.20;1.00;;;;;;6081350;23;20190;-89
2022/03/05 12:58:58;;;;;;;23.90;15.93;;;11.20;1.00;;;;;;6086751;23;20156;-90
2022/03/05 13:01:27;;;;;;;23.10;17.33;;;11.20;1.00;;;;;;6092603;23;20164;-92
2022/03/05 13:04:00;;;;;;;25.80;18.83;;;11.10;1.00;;;;;;6056853;23;20164;-92
2022/03/05 13:06:27;;;;;;;23.73;18.07;;;11.20;1.00;;;;;;6056639;23;20247;-90
2022/03/05 13:08:54;;;;;;;25.27;18.07;;;11.10;1.00;;;;;;6088021;23;20199;-90
2022/03/05 13:11:27;;;;;;;22.73;17.47;;;11.20;1.00;;;;;;6088935;23;20212;-88
2022/03/05 13:13:58;;;;;;;21.47;16.53;;;11.30;1.00;;;;;;6085835;23;20207;-90
2022/03/05 13:16:36;;;;;;;24.07;17.60;;;11.40;1.00;;;;;;6091985;23;20191;-89